sensor_id;sensor_type;location;lat;lon;timestamp;pressure;altitude;pressure_sealevel;temperature;humidity
77011;BME280;65945;53.148;17.956;2024-03-08T00:00:34;102150.05;;;-3.51;85.27
77011;BME280;65945;53.148;17.956;2024-03-08T00:03:20;102149.66;;;-3.51;85.16
77011;BME280;65945;53.148;17.956;2024-03-08T00:05:47;102146.56;;;-3.52;85.30
77011;BME280;65945;53.148;17.956;2024-03-08T00:08:14;102144.89;;;-3.53;85.16
77011;BME280;65945;53.148;17.956;2024-03-08T00:10:41;102139.52;;;-3.55;85.16
77011;BME280;65945;53.148;17.956;2024-03-08T00:13:08;102140.04;;;-3.57;85.31
77011;BME280;65945;53.148;17.956;2024-03-08T00:15:34;102144.60;;;-3.59;85.37
77011;BME280;65945;53.148;17.956;2024-03-08T00:18:02;102141.70;;;-3.59;85.40
77011;BME280;65945;53.148;17.956;2024-03-08T00:20:28;102141.55;;;-3.59;85.73
77011;BME280;65945;53.148;17.956;2024-03-08T00:22:55;102142.20;;;-3.60;85.69
77011;BME280;65945;53.148;17.956;2024-03-08T00:25:24;102145.64;;;-3.62;85.61
77011;BME280;65945;53.148;17.956;2024-03-08T00:27:51;102143.04;;;-3.65;85.60
77011;BME280;65945;53.148;17.956;2024-03-08T00:30:17;102142.96;;;-3.65;85.76
77011;BME280;65945;53.148;17.956;2024-03-08T00:32:44;102145.40;;;-3.65;85.95
77011;BME280;65945;53.148;17.956;2024-03-08T00:35:11;102143.95;;;-3.65;85.94
77011;BME280;65945;53.148;17.956;2024-03-08T00:37:38;102138.21;;;-3.66;85.92
77011;BME280;65945;53.148;17.956;2024-03-08T00:40:05;102140.88;;;-3.66;86.07
77011;BME280;65945;53.148;17.956;2024-03-08T00:42:33;102135.55;;;-3.66;86.04
77011;BME280;65945;53.148;17.956;2024-03-08T00:44:59;102136.89;;;-3.67;86.18
77011;BME280;65945;53.148;17.956;2024-03-08T00:47:26;102134.52;;;-3.68;86.10
77011;BME280;65945;53.148;17.956;2024-03-08T00:49:53;102134.64;;;-3.70;86.15
77011;BME280;65945;53.148;17.956;2024-03-08T00:52:23;102134.44;;;-3.72;86.23
77011;BME280;65945;53.148;17.956;2024-03-08T00:54:50;102130.04;;;-3.75;86.10
77011;BME280;65945;53.148;17.956;2024-03-08T00:57:17;102129.13;;;-3.77;86.21
77011;BME280;65945;53.148;17.956;2024-03-08T00:59:43;102131.73;;;-3.78;86.13
77011;BME280;65945;53.148;17.956;2024-03-08T01:02:10;102127.98;;;-3.78;86.25
77011;BME280;65945;53.148;17.956;2024-03-08T01:04:37;102125.33;;;-3.78;86.44
77011;BME280;65945;53.148;17.956;2024-03-08T01:07:03;102123.70;;;-3.79;86.41
77011;BME280;65945;53.148;17.956;2024-03-08T01:09:30;102122.06;;;-3.80;86.44
77011;BME280;65945;53.148;17.956;2024-03-08T01:11:56;102121.52;;;-3.82;86.15
77011;BME280;65945;53.148;17.956;2024-03-08T01:14:24;102120.81;;;-3.84;86.29
77011;BME280;65945;53.148;17.956;2024-03-08T01:16:55;102119.48;;;-3.86;86.30
77011;BME280;65945;53.148;17.956;2024-03-08T01:19:22;102117.33;;;-3.88;86.44
77011;BME280;65945;53.148;17.956;2024-03-08T01:21:50;102112.33;;;-3.91;86.17
77011;BME280;65945;53.148;17.956;2024-03-08T01:24:17;102107.49;;;-3.93;86.09
77011;BME280;65945;53.148;17.956;2024-03-08T01:26:44;102106.69;;;-3.96;86.07
77011;BME280;65945;53.148;17.956;2024-03-08T01:29:11;102106.67;;;-4.00;86.12
77011;BME280;65945;53.148;17.956;2024-03-08T01:31:37;102106.37;;;-4.03;86.13
77011;BME280;65945;53.148;17.956;2024-03-08T01:34:04;102108.52;;;-4.06;86.00
77011;BME280;65945;53.148;17.956;2024-03-08T01:36:31;102101.92;;;-4.09;85.97
77011;BME280;65945;53.148;17.956;2024-03-08T01:38:57;102096.56;;;-4.12;86.17
77011;BME280;65945;53.148;17.956;2024-03-08T01:41:24;102101.02;;;-4.14;86.22
77011;BME280;65945;53.148;17.956;2024-03-08T01:43:51;102101.73;;;-4.14;86.54
77011;BME280;65945;53.148;17.956;2024-03-08T01:46:21;102103.18;;;-4.14;86.84
77011;BME280;65945;53.148;17.956;2024-03-08T01:48:48;102099.91;;;-4.17;86.53
77011;BME280;65945;53.148;17.956;2024-03-08T01:51:17;102097.05;;;-4.19;86.60
77011;BME280;65945;53.148;17.956;2024-03-08T01:53:46;102093.33;;;-4.20;86.66
77011;BME280;65945;53.148;17.956;2024-03-08T01:56:13;102091.90;;;-4.23;86.48
77011;BME280;65945;53.148;17.956;2024-03-08T01:58:41;102091.33;;;-4.25;86.70
77011;BME280;65945;53.148;17.956;2024-03-08T02:01:13;102087.44;;;-4.26;86.71
77011;BME280;65945;53.148;17.956;2024-03-08T02:03:45;102088.34;;;-4.25;87.02
77011;BME280;65945;53.148;17.956;2024-03-08T02:06:12;102089.63;;;-4.24;87.18
77011;BME280;65945;53.148;17.956;2024-03-08T02:08:42;102087.71;;;-4.23;87.13
77011;BME280;65945;53.148;17.956;2024-03-08T02:11:10;102082.77;;;-4.22;87.19
77011;BME280;65945;53.148;17.956;2024-03-08T02:13:38;102083.60;;;-4.21;87.25
77011;BME280;65945;53.148;17.956;2024-03-08T02:16:04;102083.52;;;-4.20;87.30
77011;BME280;65945;53.148;17.956;2024-03-08T02:18:34;102080.37;;;-4.20;87.21
77011;BME280;65945;53.148;17.956;2024-03-08T02:21:02;102076.02;;;-4.21;87.13
77011;BME280;65945;53.148;17.956;2024-03-08T02:23:29;102069.86;;;-4.23;87.04
77011;BME280;65945;53.148;17.956;2024-03-08T02:25:56;102072.31;;;-4.25;87.02
77011;BME280;65945;53.148;17.956;2024-03-08T02:28:24;102067.13;;;-4.25;87.21
77011;BME280;65945;53.148;17.956;2024-03-08T02:30:54;102065.16;;;-4.28;87.05
77011;BME280;65945;53.148;17.956;2024-03-08T02:33:22;102067.23;;;-4.33;86.89
77011;BME280;65945;53.148;17.956;2024-03-08T02:35:49;102063.38;;;-4.37;86.81
77011;BME280;65945;53.148;17.956;2024-03-08T02:38:19;102061.89;;;-4.40;86.86
77011;BME280;65945;53.148;17.956;2024-03-08T02:40:47;102063.75;;;-4.42;87.15
77011;BME280;65945;53.148;17.956;2024-03-08T02:43:15;102064.33;;;-4.44;87.05
77011;BME280;65945;53.148;17.956;2024-03-08T02:45:42;102063.34;;;-4.46;87.10
77011;BME280;65945;53.148;17.956;2024-03-08T02:48:08;102060.12;;;-4.49;87.17
77011;BME280;65945;53.148;17.956;2024-03-08T02:50:35;102058.46;;;-4.52;86.99
77011;BME280;65945;53.148;17.956;2024-03-08T02:53:03;102061.30;;;-4.55;87.06
77011;BME280;65945;53.148;17.956;2024-03-08T02:55:30;102060.08;;;-4.57;87.17
77011;BME280;65945;53.148;17.956;2024-03-08T02:57:57;102061.98;;;-4.60;87.10
77011;BME280;65945;53.148;17.956;2024-03-08T03:00:23;102059.11;;;-4.61;87.10
77011;BME280;65945;53.148;17.956;2024-03-08T03:02:51;102059.48;;;-4.61;87.38
77011;BME280;65945;53.148;17.956;2024-03-08T03:05:21;102056.64;;;-4.60;87.37
77011;BME280;65945;53.148;17.956;2024-03-08T03:07:47;102057.97;;;-4.59;87.55
77011;BME280;65945;53.148;17.956;2024-03-08T03:10:17;102058.45;;;-4.59;87.43
77011;BME280;65945;53.148;17.956;2024-03-08T03:12:45;102052.56;;;-4.61;87.28
77011;BME280;65945;53.148;17.956;2024-03-08T03:15:12;102054.52;;;-4.61;87.44
77011;BME280;65945;53.148;17.956;2024-03-08T03:17:39;102053.10;;;-4.62;87.61
77011;BME280;65945;53.148;17.956;2024-03-08T03:20:09;102053.78;;;-4.63;87.60
77011;BME280;65945;53.148;17.956;2024-03-08T03:22:40;102048.30;;;-4.65;87.55
77011;BME280;65945;53.148;17.956;2024-03-08T03:25:13;102045.86;;;-4.66;87.64
77011;BME280;65945;53.148;17.956;2024-03-08T03:27:41;102045.73;;;-4.65;87.84
77011;BME280;65945;53.148;17.956;2024-03-08T03:30:08;102045.09;;;-4.64;87.67
77011;BME280;65945;53.148;17.956;2024-03-08T03:32:50;102043.09;;;-4.65;87.76
77011;BME280;65945;53.148;17.956;2024-03-08T03:35:21;102044.98;;;-4.64;87.68
77011;BME280;65945;53.148;17.956;2024-03-08T03:37:48;102044.73;;;-4.65;87.70
77011;BME280;65945;53.148;17.956;2024-03-08T03:40:28;102043.42;;;-4.67;87.58
77011;BME280;65945;53.148;17.956;2024-03-08T03:42:55;102046.95;;;-4.69;87.84
77011;BME280;65945;53.148;17.956;2024-03-08T03:45:23;102043.82;;;-4.70;87.62
77011;BME280;65945;53.148;17.956;2024-03-08T03:47:50;102041.39;;;-4.72;87.61
77011;BME280;65945;53.148;17.956;2024-03-08T03:50:17;102041.27;;;-4.75;87.61
77011;BME280;65945;53.148;17.956;2024-03-08T03:52:46;102039.71;;;-4.78;87.44
77011;BME280;65945;53.148;17.956;2024-03-08T03:55:13;102038.82;;;-4.81;87.44
77011;BME280;65945;53.148;17.956;2024-03-08T03:57:40;102034.11;;;-4.84;87.45
77011;BME280;65945;53.148;17.956;2024-03-08T04:00:07;102036.73;;;-4.85;87.66
77011;BME280;65945;53.148;17.956;2024-03-08T04:02:41;102033.11;;;-4.85;87.67
77011;BME280;65945;53.148;17.956;2024-03-08T04:05:09;102035.52;;;-4.85;87.70
77011;BME280;65945;53.148;17.956;2024-03-08T04:07:37;102036.98;;;-4.85;87.76
77011;BME280;65945;53.148;17.956;2024-03-08T04:10:06;102033.88;;;-4.86;87.68
77011;BME280;65945;53.148;17.956;2024-03-08T04:12:33;102036.30;;;-4.87;87.38
77011;BME280;65945;53.148;17.956;2024-03-08T04:15:00;102036.44;;;-4.88;87.70
77011;BME280;65945;53.148;17.956;2024-03-08T04:17:27;102034.18;;;-4.88;87.71
77011;BME280;65945;53.148;17.956;2024-03-08T04:19:54;102031.70;;;-4.89;87.56
77011;BME280;65945;53.148;17.956;2024-03-08T04:22:21;102032.13;;;-4.92;87.49
77011;BME280;65945;53.148;17.956;2024-03-08T04:24:47;102032.88;;;-4.93;87.66
77011;BME280;65945;53.148;17.956;2024-03-08T04:27:14;102031.95;;;-4.93;87.71
77011;BME280;65945;53.148;17.956;2024-03-08T04:29:41;102030.95;;;-4.94;87.61
77011;BME280;65945;53.148;17.956;2024-03-08T04:32:08;102030.10;;;-4.97;87.58
77011;BME280;65945;53.148;17.956;2024-03-08T04:34:35;102027.80;;;-4.97;87.83
77011;BME280;65945;53.148;17.956;2024-03-08T04:37:02;102027.52;;;-4.97;87.79
77011;BME280;65945;53.148;17.956;2024-03-08T04:39:31;102025.92;;;-4.98;87.93
77011;BME280;65945;53.148;17.956;2024-03-08T04:42:01;102023.92;;;-4.99;87.89
77011;BME280;65945;53.148;17.956;2024-03-08T04:44:30;102023.75;;;-4.97;87.88
77011;BME280;65945;53.148;17.956;2024-03-08T04:46:58;102022.50;;;-4.96;88.00
77011;BME280;65945;53.148;17.956;2024-03-08T04:49:24;102021.37;;;-4.95;88.16
77011;BME280;65945;53.148;17.956;2024-03-08T04:51:51;102019.63;;;-4.94;88.15
77011;BME280;65945;53.148;17.956;2024-03-08T04:54:17;102021.60;;;-4.95;87.95
77011;BME280;65945;53.148;17.956;2024-03-08T04:56:45;102018.63;;;-4.95;87.95
77011;BME280;65945;53.148;17.956;2024-03-08T04:59:13;102018.91;;;-4.95;87.82
77011;BME280;65945;53.148;17.956;2024-03-08T05:01:40;102019.38;;;-4.96;87.88
77011;BME280;65945;53.148;17.956;2024-03-08T05:04:06;102019.69;;;-4.96;88.00
77011;BME280;65945;53.148;17.956;2024-03-08T05:06:33;102020.93;;;-4.96;87.85
77011;BME280;65945;53.148;17.956;2024-03-08T05:09:00;102020.98;;;-4.96;87.83
77011;BME280;65945;53.148;17.956;2024-03-08T05:11:26;102018.53;;;-4.96;87.85
77011;BME280;65945;53.148;17.956;2024-03-08T05:13:53;102018.45;;;-4.96;87.84
77011;BME280;65945;53.148;17.956;2024-03-08T05:16:20;102017.64;;;-4.95;87.97
77011;BME280;65945;53.148;17.956;2024-03-08T05:18:49;102021.36;;;-4.94;87.98
77011;BME280;65945;53.148;17.956;2024-03-08T05:21:15;102018.55;;;-4.94;87.95
77011;BME280;65945;53.148;17.956;2024-03-08T05:23:46;102019.23;;;-4.94;87.82
77011;BME280;65945;53.148;17.956;2024-03-08T05:26:13;102020.44;;;-4.94;87.84
77011;BME280;65945;53.148;17.956;2024-03-08T05:28:40;102017.95;;;-4.95;87.72
77011;BME280;65945;53.148;17.956;2024-03-08T05:31:07;102020.33;;;-4.95;87.69
77011;BME280;65945;53.148;17.956;2024-03-08T05:33:34;102019.81;;;-4.95;87.76
77011;BME280;65945;53.148;17.956;2024-03-08T05:36:01;102017.55;;;-4.94;87.90
77011;BME280;65945;53.148;17.956;2024-03-08T05:38:29;102018.09;;;-4.92;87.99
77011;BME280;65945;53.148;17.956;2024-03-08T05:40:55;102018.34;;;-4.89;88.16
77011;BME280;65945;53.148;17.956;2024-03-08T05:43:22;102019.36;;;-4.86;88.02
77011;BME280;65945;53.148;17.956;2024-03-08T05:45:49;102016.98;;;-4.84;87.96
77011;BME280;65945;53.148;17.956;2024-03-08T05:48:15;102020.10;;;-4.80;88.07
77011;BME280;65945;53.148;17.956;2024-03-08T05:50:44;102021.48;;;-4.77;88.16
77011;BME280;65945;53.148;17.956;2024-03-08T05:53:12;102022.89;;;-4.73;88.25
77011;BME280;65945;53.148;17.956;2024-03-08T05:55:39;102018.72;;;-4.71;88.39
77011;BME280;65945;53.148;17.956;2024-03-08T05:58:07;102016.77;;;-4.68;88.15
77011;BME280;65945;53.148;17.956;2024-03-08T06:00:34;102018.93;;;-4.66;87.99
77011;BME280;65945;53.148;17.956;2024-03-08T06:03:02;102017.57;;;-4.63;88.11
77011;BME280;65945;53.148;17.956;2024-03-08T06:05:29;102020.58;;;-4.60;88.00
77011;BME280;65945;53.148;17.956;2024-03-08T06:07:56;102024.98;;;-4.54;88.12
77011;BME280;65945;53.148;17.956;2024-03-08T06:10:23;102019.00;;;-4.48;88.53
77011;BME280;65945;53.148;17.956;2024-03-08T06:12:49;102021.45;;;-4.40;88.63
77011;BME280;65945;53.148;17.956;2024-03-08T06:15:17;102021.41;;;-4.33;88.79
77011;BME280;65945;53.148;17.956;2024-03-08T06:17:47;102023.94;;;-4.25;88.79
77011;BME280;65945;53.148;17.956;2024-03-08T06:20:14;102027.86;;;-4.17;88.66
77011;BME280;65945;53.148;17.956;2024-03-08T06:22:41;102022.30;;;-4.10;88.65
77011;BME280;65945;53.148;17.956;2024-03-08T06:25:08;102023.30;;;-4.02;88.71
77011;BME280;65945;53.148;17.956;2024-03-08T06:27:37;102025.65;;;-3.95;88.89
77011;BME280;65945;53.148;17.956;2024-03-08T06:30:04;102025.77;;;-3.85;89.32
77011;BME280;65945;53.148;17.956;2024-03-08T06:32:31;102027.90;;;-3.75;89.75
77011;BME280;65945;53.148;17.956;2024-03-08T06:35:02;102018.52;;;-3.64;89.85
77011;BME280;65945;53.148;17.956;2024-03-08T06:37:33;102019.70;;;-3.55;90.04
77011;BME280;65945;53.148;17.956;2024-03-08T06:40:00;102016.61;;;-3.44;90.24
77011;BME280;65945;53.148;17.956;2024-03-08T06:42:28;102016.90;;;-3.35;90.71
77011;BME280;65945;53.148;17.956;2024-03-08T06:44:55;102016.14;;;-3.25;90.97
77011;BME280;65945;53.148;17.956;2024-03-08T06:47:26;102017.67;;;-3.15;91.00
77011;BME280;65945;53.148;17.956;2024-03-08T06:49:52;102016.84;;;-3.07;90.96
77011;BME280;65945;53.148;17.956;2024-03-08T06:52:19;102014.52;;;-2.96;90.84
77011;BME280;65945;53.148;17.956;2024-03-08T06:54:46;102020.14;;;-2.86;90.90
77011;BME280;65945;53.148;17.956;2024-03-08T06:57:12;102017.59;;;-2.76;90.90
77011;BME280;65945;53.148;17.956;2024-03-08T06:59:40;102017.83;;;-2.65;90.90
77011;BME280;65945;53.148;17.956;2024-03-08T07:02:07;102018.77;;;-2.52;91.02
77011;BME280;65945;53.148;17.956;2024-03-08T07:04:35;102018.73;;;-2.40;90.83
77011;BME280;65945;53.148;17.956;2024-03-08T07:07:05;102022.26;;;-2.29;90.65
77011;BME280;65945;53.148;17.956;2024-03-08T07:09:31;102022.94;;;-2.16;90.76
77011;BME280;65945;53.148;17.956;2024-03-08T07:11:59;102022.69;;;-2.04;90.85
77011;BME280;65945;53.148;17.956;2024-03-08T07:14:25;102022.42;;;-1.94;90.70
77011;BME280;65945;53.148;17.956;2024-03-08T07:16:52;102023.35;;;-1.83;90.49
77011;BME280;65945;53.148;17.956;2024-03-08T07:19:19;102024.50;;;-1.72;90.41
77011;BME280;65945;53.148;17.956;2024-03-08T07:21:46;102023.48;;;-1.63;90.40
77011;BME280;65945;53.148;17.956;2024-03-08T07:24:13;102019.17;;;-1.54;90.36
77011;BME280;65945;53.148;17.956;2024-03-08T07:26:43;102018.55;;;-1.44;90.31
77011;BME280;65945;53.148;17.956;2024-03-08T07:29:10;102023.05;;;-1.32;90.13
77011;BME280;65945;53.148;17.956;2024-03-08T07:31:37;102024.98;;;-1.21;89.92
77011;BME280;65945;53.148;17.956;2024-03-08T07:34:03;102019.83;;;-1.11;89.89
77011;BME280;65945;53.148;17.956;2024-03-08T07:36:34;102020.47;;;-1.00;90.04
77011;BME280;65945;53.148;17.956;2024-03-08T07:39:03;102014.89;;;-0.89;89.55
77011;BME280;65945;53.148;17.956;2024-03-08T07:41:32;102017.73;;;-0.78;89.29
77011;BME280;65945;53.148;17.956;2024-03-08T07:44:00;102015.92;;;-0.68;89.44
77011;BME280;65945;53.148;17.956;2024-03-08T07:46:30;102013.89;;;-0.56;89.31
77011;BME280;65945;53.148;17.956;2024-03-08T07:48:56;102015.74;;;-0.42;89.18
77011;BME280;65945;53.148;17.956;2024-03-08T07:51:23;102010.05;;;-0.31;88.96
77011;BME280;65945;53.148;17.956;2024-03-08T07:53:49;102007.44;;;-0.22;88.47
77011;BME280;65945;53.148;17.956;2024-03-08T07:56:16;102007.11;;;-0.13;88.54
77011;BME280;65945;53.148;17.956;2024-03-08T07:58:44;102010.52;;;-0.02;88.32
77011;BME280;65945;53.148;17.956;2024-03-08T08:01:17;102009.58;;;0.10;88.54
77011;BME280;65945;53.148;17.956;2024-03-08T08:03:45;102006.33;;;0.21;88.20
77011;BME280;65945;53.148;17.956;2024-03-08T08:06:11;102005.43;;;0.32;87.85
77011;BME280;65945;53.148;17.956;2024-03-08T08:08:42;101999.43;;;0.43;87.73
77011;BME280;65945;53.148;17.956;2024-03-08T08:11:09;101995.77;;;0.54;87.65
77011;BME280;65945;53.148;17.956;2024-03-08T08:13:37;101996.36;;;0.66;87.38
77011;BME280;65945;53.148;17.956;2024-03-08T08:16:05;101993.70;;;0.77;87.57
77011;BME280;65945;53.148;17.956;2024-03-08T08:18:33;101992.41;;;0.89;87.19
77011;BME280;65945;53.148;17.956;2024-03-08T08:20:59;101995.08;;;0.99;86.93
77011;BME280;65945;53.148;17.956;2024-03-08T08:23:29;101990.83;;;1.11;86.74
77011;BME280;65945;53.148;17.956;2024-03-08T08:25:56;101993.73;;;1.22;86.68
77011;BME280;65945;53.148;17.956;2024-03-08T08:28:23;101991.02;;;1.34;86.36
77011;BME280;65945;53.148;17.956;2024-03-08T08:30:51;101990.34;;;1.46;86.14
77011;BME280;65945;53.148;17.956;2024-03-08T08:33:17;101991.67;;;1.60;85.95
77011;BME280;65945;53.148;17.956;2024-03-08T08:35:44;101985.44;;;1.72;85.53
77011;BME280;65945;53.148;17.956;2024-03-08T08:38:10;101987.27;;;1.84;85.12
77011;BME280;65945;53.148;17.956;2024-03-08T08:40:38;101982.73;;;1.97;84.74
77011;BME280;65945;53.148;17.956;2024-03-08T08:43:04;101981.63;;;2.09;84.32
77011;BME280;65945;53.148;17.956;2024-03-08T08:45:31;101980.55;;;2.21;84.16
77011;BME280;65945;53.148;17.956;2024-03-08T08:47:58;101979.55;;;2.33;83.15
77011;BME280;65945;53.148;17.956;2024-03-08T08:50:26;101979.09;;;2.44;83.01
77011;BME280;65945;53.148;17.956;2024-03-08T08:52:53;101978.88;;;2.55;82.65
77011;BME280;65945;53.148;17.956;2024-03-08T08:55:19;101978.62;;;2.67;82.68
77011;BME280;65945;53.148;17.956;2024-03-08T08:57:52;101982.85;;;2.79;81.80
77011;BME280;65945;53.148;17.956;2024-03-08T09:00:19;101978.70;;;2.90;80.87
77011;BME280;65945;53.148;17.956;2024-03-08T09:02:47;101975.94;;;3.00;79.61
77011;BME280;65945;53.148;17.956;2024-03-08T09:05:14;101971.31;;;3.14;80.31
77011;BME280;65945;53.148;17.956;2024-03-08T09:07:43;101969.58;;;3.29;80.57
77011;BME280;65945;53.148;17.956;2024-03-08T09:10:13;101970.75;;;3.46;80.15
77011;BME280;65945;53.148;17.956;2024-03-08T09:12:40;101969.89;;;3.60;79.59
77011;BME280;65945;53.148;17.956;2024-03-08T09:15:08;101965.91;;;3.73;79.30
77011;BME280;65945;53.148;17.956;2024-03-08T09:17:37;101964.79;;;3.86;78.44
77011;BME280;65945;53.148;17.956;2024-03-08T09:20:07;101963.47;;;3.96;77.60
77011;BME280;65945;53.148;17.956;2024-03-08T09:22:35;101965.38;;;4.04;76.05
77011;BME280;65945;53.148;17.956;2024-03-08T09:25:02;101963.85;;;4.10;75.36
77011;BME280;65945;53.148;17.956;2024-03-08T09:27:31;101965.64;;;4.21;76.36
77011;BME280;65945;53.148;17.956;2024-03-08T09:29:58;101967.77;;;4.34;75.95
77011;BME280;65945;53.148;17.956;2024-03-08T09:32:25;101959.92;;;4.47;75.92
77011;BME280;65945;53.148;17.956;2024-03-08T09:34:53;101957.91;;;4.61;75.86
77011;BME280;65945;53.148;17.956;2024-03-08T09:37:19;101959.20;;;4.75;75.62
77011;BME280;65945;53.148;17.956;2024-03-08T09:39:46;101959.14;;;4.88;74.95
77011;BME280;65945;53.148;17.956;2024-03-08T09:42:12;101955.52;;;4.99;74.87
77011;BME280;65945;53.148;17.956;2024-03-08T09:44:47;101952.74;;;5.11;74.02
77011;BME280;65945;53.148;17.956;2024-03-08T09:47:15;101952.95;;;5.26;74.34
77011;BME280;65945;53.148;17.956;2024-03-08T09:49:42;101951.79;;;5.40;73.44
77011;BME280;65945;53.148;17.956;2024-03-08T09:52:09;101950.25;;;5.48;70.34
77011;BME280;65945;53.148;17.956;2024-03-08T09:54:38;101945.36;;;5.52;69.84
77011;BME280;65945;53.148;17.956;2024-03-08T09:57:06;101946.02;;;5.59;70.46
77011;BME280;65945;53.148;17.956;2024-03-08T09:59:35;101944.27;;;5.72;71.47
77011;BME280;65945;53.148;17.956;2024-03-08T10:02:02;101939.94;;;5.82;68.95
77011;BME280;65945;53.148;17.956;2024-03-08T10:04:29;101936.42;;;5.89;68.66
77011;BME280;65945;53.148;17.956;2024-03-08T10:07:01;101934.88;;;5.96;66.83
77011;BME280;65945;53.148;17.956;2024-03-08T10:09:27;101933.04;;;5.98;65.08
77011;BME280;65945;53.148;17.956;2024-03-08T10:11:57;101928.38;;;6.00;63.97
77011;BME280;65945;53.148;17.956;2024-03-08T10:14:27;101929.88;;;6.04;65.46
77011;BME280;65945;53.148;17.956;2024-03-08T10:16:54;101931.80;;;6.14;67.11
77011;BME280;65945;53.148;17.956;2024-03-08T10:19:27;101926.90;;;6.27;67.05
77011;BME280;65945;53.148;17.956;2024-03-08T10:21:56;101925.67;;;6.38;65.61
77011;BME280;65945;53.148;17.956;2024-03-08T10:24:25;101924.27;;;6.48;63.93
77011;BME280;65945;53.148;17.956;2024-03-08T10:26:59;101920.92;;;6.52;62.60
77011;BME280;65945;53.148;17.956;2024-03-08T10:29:26;101919.93;;;6.60;65.22
77011;BME280;65945;53.148;17.956;2024-03-08T10:31:53;101920.12;;;6.71;64.71
77011;BME280;65945;53.148;17.956;2024-03-08T10:34:23;101917.66;;;6.80;61.90
77011;BME280;65945;53.148;17.956;2024-03-08T10:36:51;101917.08;;;6.83;62.46
77011;BME280;65945;53.148;17.956;2024-03-08T10:39:23;101916.73;;;6.90;63.71
77011;BME280;65945;53.148;17.956;2024-03-08T10:41:56;101912.08;;;7.02;63.36
77011;BME280;65945;53.148;17.956;2024-03-08T10:47:10;101909.29;;;7.20;63.81
77011;BME280;65945;53.148;17.956;2024-03-08T10:49:50;101909.41;;;7.29;63.14
77011;BME280;65945;53.148;17.956;2024-03-08T10:52:18;101909.89;;;7.37;62.45
77011;BME280;65945;53.148;17.956;2024-03-08T10:54:47;101908.26;;;7.44;62.85
77011;BME280;65945;53.148;17.956;2024-03-08T10:57:17;101910.59;;;7.52;62.59
77011;BME280;65945;53.148;17.956;2024-03-08T10:59:47;101905.47;;;7.60;61.68
77011;BME280;65945;53.148;17.956;2024-03-08T11:02:16;101899.75;;;7.65;61.32
77011;BME280;65945;53.148;17.956;2024-03-08T11:04:49;101899.25;;;7.68;57.37
77011;BME280;65945;53.148;17.956;2024-03-08T11:07:17;101897.80;;;7.67;57.99
77011;BME280;65945;53.148;17.956;2024-03-08T11:09:47;101890.15;;;7.63;55.37
77011;BME280;65945;53.148;17.956;2024-03-08T11:12:25;101887.75;;;7.58;55.21
77011;BME280;65945;53.148;17.956;2024-03-08T11:14:53;101886.96;;;7.63;58.06
77011;BME280;65945;53.148;17.956;2024-03-08T11:17:22;101885.87;;;7.71;58.23
77011;BME280;65945;53.148;17.956;2024-03-08T11:19:55;101887.41;;;7.76;54.55
77011;BME280;65945;53.148;17.956;2024-03-08T11:22:26;101881.76;;;7.74;54.07
77011;BME280;65945;53.148;17.956;2024-03-08T11:24:58;101882.14;;;7.74;56.09
77011;BME280;65945;53.148;17.956;2024-03-08T11:27:30;101880.55;;;7.71;53.14
77011;BME280;65945;53.148;17.956;2024-03-08T11:30:03;101877.18;;;7.70;54.04
77011;BME280;65945;53.148;17.956;2024-03-08T11:32:45;101876.45;;;7.76;55.47
77011;BME280;65945;53.148;17.956;2024-03-08T11:35:19;101874.69;;;7.83;54.51
77011;BME280;65945;53.148;17.956;2024-03-08T11:37:46;101870.83;;;7.87;55.25
77011;BME280;65945;53.148;17.956;2024-03-08T11:40:15;101871.14;;;7.94;55.70
77011;BME280;65945;53.148;17.956;2024-03-08T11:42:46;101865.91;;;8.01;54.42
77011;BME280;65945;53.148;17.956;2024-03-08T11:45:15;101862.39;;;8.03;54.38
77011;BME280;65945;53.148;17.956;2024-03-08T11:47:44;101858.96;;;8.06;53.05
77011;BME280;65945;53.148;17.956;2024-03-08T11:50:14;101854.35;;;8.02;49.77
77011;BME280;65945;53.148;17.956;2024-03-08T11:52:43;101850.69;;;7.98;52.70
77011;BME280;65945;53.148;17.956;2024-03-08T11:55:11;101845.59;;;8.04;54.99
77011;BME280;65945;53.148;17.956;2024-03-08T11:57:39;101836.05;;;8.10;52.67
77011;BME280;65945;53.148;17.956;2024-03-08T12:00:06;101831.01;;;8.09;49.09
77011;BME280;65945;53.148;17.956;2024-03-08T12:02:34;101827.04;;;8.04;48.78
77011;BME280;65945;53.148;17.956;2024-03-08T12:05:07;101823.92;;;8.07;51.98
77011;BME280;65945;53.148;17.956;2024-03-08T12:07:35;101822.73;;;8.14;50.30
77011;BME280;65945;53.148;17.956;2024-03-08T12:10:21;101822.34;;;8.15;47.73
77011;BME280;65945;53.148;17.956;2024-03-08T12:12:53;101818.58;;;8.10;48.95
77011;BME280;65945;53.148;17.956;2024-03-08T12:15:22;101814.92;;;8.09;50.21
77011;BME280;65945;53.148;17.956;2024-03-08T12:17:51;101809.03;;;8.14;51.04
77011;BME280;65945;53.148;17.956;2024-03-08T12:20:23;101809.17;;;8.24;52.46
77011;BME280;65945;53.148;17.956;2024-03-08T12:22:53;101810.70;;;8.37;53.28
77011;BME280;65945;53.148;17.956;2024-03-08T12:25:20;101810.08;;;8.50;53.69
77011;BME280;65945;53.148;17.956;2024-03-08T12:27:47;101803.66;;;8.60;53.52
77011;BME280;65945;53.148;17.956;2024-03-08T12:30:18;101803.95;;;8.71;53.18
77011;BME280;65945;53.148;17.956;2024-03-08T12:35:15;101797.87;;;8.84;52.84
77011;BME280;65945;53.148;17.956;2024-03-08T12:37:42;101796.64;;;8.86;47.43
77011;BME280;65945;53.148;17.956;2024-03-08T12:40:09;101795.02;;;8.75;45.70
77011;BME280;65945;53.148;17.956;2024-03-08T12:42:36;101792.30;;;8.68;47.66
77011;BME280;65945;53.148;17.956;2024-03-08T12:45:05;101789.11;;;8.66;48.72
77011;BME280;65945;53.148;17.956;2024-03-08T12:47:36;101788.00;;;8.69;49.73
77011;BME280;65945;53.148;17.956;2024-03-08T12:50:03;101787.86;;;8.76;50.49
77011;BME280;65945;53.148;17.956;2024-03-08T12:52:30;101780.19;;;8.79;49.03